Time;durP1;ratioP1;P1;durP2;ratioP2;P2;SDS_P1;SDS_P2;PMS_P1;PMS_P2;Temp;Humidity;BMP_temperature;BMP_pressure;BME280_temperature;BME280_humidity;BME280_pressure;Samples;Min_cycle;Max_cycle;Signal;HPM_P1;HPM_P2
2024/03/24 00:02:15;;;;;;;14.50;6.68;;;4.30;99.90;;;;;;5013782;28;20050;-73
2024/03/24 00:04:41;;;;;;;12.65;5.43;;;4.30;99.90;;;;;;5013676;28;20054;-73
2024/03/24 00:07:06;;;;;;;14.85;6.82;;;4.30;99.90;;;;;;5013051;28;20054;-72
2024/03/24 00:09:32;;;;;;;19.83;7.70;;;4.30;99.90;;;;;;5013943;28;20026;-73
2024/03/24 00:11:57;;;;;;;27.15;8.98;;;4.20;99.90;;;;;;5014305;28;20030;-73
2024/03/24 00:14:23;;;;;;;15.13;4.82;;;4.20;99.90;;;;;;5014458;28;20054;-73
2024/03/24 00:16:48;;;;;;;38.65;12.63;;;4.20;99.90;;;;;;5014347;28;20026;-73
2024/03/24 00:19:14;;;;;;;35.63;14.10;;;4.20;99.90;;;;;;5012870;28;20033;-74
2024/03/24 00:21:40;;;;;;;37.67;15.75;;;4.20;99.90;;;;;;5012774;28;20034;-73
2024/03/24 00:24:05;;;;;;;26.00;10.82;;;4.20;99.90;;;;;;5013730;28;20057;-73
2024/03/24 00:26:31;;;;;;;22.58;10.18;;;4.20;99.90;;;;;;5013850;28;20022;-74
2024/03/24 00:28:56;;;;;;;21.38;10.07;;;4.20;99.90;;;;;;5014161;28;20029;-72
2024/03/24 00:31:22;;;;;;;21.48;9.32;;;4.20;99.90;;;;;;5013549;28;20034;-75
2024/03/24 00:33:48;;;;;;;23.73;10.73;;;4.20;99.90;;;;;;5014267;28;20056;-74
2024/03/24 00:36:14;;;;;;;22.58;10.55;;;4.20;99.90;;;;;;5012452;28;20026;-73
2024/03/24 00:38:40;;;;;;;20.95;8.55;;;4.20;99.90;;;;;;5013670;28;20037;-73
2024/03/24 00:41:06;;;;;;;19.17;7.93;;;4.30;99.90;;;;;;5013091;28;20030;-72
2024/03/24 00:43:32;;;;;;;20.80;10.05;;;4.30;99.90;;;;;;5013400;28;20031;-73
2024/03/24 00:45:58;;;;;;;20.50;7.65;;;4.40;99.90;;;;;;5012703;28;20022;-73
2024/03/24 00:48:24;;;;;;;26.48;10.30;;;4.50;99.90;;;;;;5013752;28;20105;-71
2024/03/24 00:50:49;;;;;;;20.42;8.65;;;4.50;99.90;;;;;;5012343;28;20049;-72
2024/03/24 00:53:15;;;;;;;18.60;7.88;;;4.50;99.90;;;;;;5013193;28;20070;-73
2024/03/24 00:55:41;;;;;;;16.98;6.85;;;4.40;99.90;;;;;;5013800;28;20075;-73
2024/03/24 00:58:07;;;;;;;13.27;6.22;;;4.50;99.90;;;;;;5012110;28;20029;-74
2024/03/24 01:00:33;;;;;;;17.05;6.95;;;4.50;99.90;;;;;;5011398;28;20037;-71
2024/03/24 01:02:58;;;;;;;14.82;6.05;;;4.50;99.90;;;;;;5013202;28;20128;-73
2024/03/24 01:05:24;;;;;;;16.52;6.65;;;4.60;99.90;;;;;;5012973;28;20049;-72
2024/03/24 01:07:50;;;;;;;14.82;6.40;;;4.60;99.90;;;;;;5013409;28;20104;-74
2024/03/24 01:10:16;;;;;;;17.45;6.68;;;4.60;99.90;;;;;;5011653;28;20075;-74
2024/03/24 01:12:43;;;;;;;20.33;6.05;;;4.60;99.90;;;;;;5012907;28;20023;-74
2024/03/24 01:15:09;;;;;;;14.85;6.13;;;4.60;99.90;;;;;;5013452;28;20036;-73
2024/03/24 01:17:35;;;;;;;15.13;6.15;;;4.60;99.90;;;;;;5011578;28;20058;-74
2024/03/24 01:20:01;;;;;;;10.90;6.43;;;4.50;99.90;;;;;;5012742;28;20026;-71
2024/03/24 01:22:26;;;;;;;16.25;6.72;;;4.50;99.90;;;;;;5012986;28;20101;-75
2024/03/24 01:24:52;;;;;;;11.02;5.40;;;4.50;99.90;;;;;;5012984;28;20034;-73
2024/03/24 01:27:17;;;;;;;19.08;7.53;;;4.50;99.90;;;;;;5011610;28;20486;-72
2024/03/24 01:29:43;;;;;;;19.02;7.22;;;4.50;99.90;;;;;;5012646;28;20041;-74
2024/03/24 01:32:08;;;;;;;18.92;7.13;;;4.50;99.90;;;;;;5013141;28;20052;-74
2024/03/24 01:34:34;;;;;;;19.48;8.38;;;4.50;99.90;;;;;;5012273;28;20026;-73
2024/03/24 01:36:59;;;;;;;17.05;7.90;;;4.50;99.90;;;;;;5012403;28;20034;-72
2024/03/24 01:39:25;;;;;;;21.42;8.93;;;4.50;99.90;;;;;;5012866;28;20050;-74
2024/03/24 01:41:50;;;;;;;14.50;7.45;;;4.60;99.90;;;;;;5011104;28;20045;-74
2024/03/24 01:44:16;;;;;;;22.00;8.68;;;4.60;99.90;;;;;;5012963;28;20018;-74
2024/03/24 01:46:42;;;;;;;23.25;8.52;;;4.60;99.90;;;;;;5010911;28;20140;-74
2024/03/24 01:49:07;;;;;;;19.00;9.27;;;4.60;99.90;;;;;;5012919;28;20022;-72
2024/03/24 01:51:35;;;;;;;33.20;12.93;;;4.60;99.90;;;;;;5012412;28;20026;-72
2024/03/24 01:54:01;;;;;;;30.27;10.77;;;4.60;99.90;;;;;;5012306;28;20034;-74
2024/03/24 01:56:28;;;;;;;26.23;10.40;;;4.60;99.90;;;;;;5011028;28;20026;-73
2024/03/24 01:58:53;;;;;;;23.25;9.10;;;4.60;99.90;;;;;;5012342;28;20391;-72
2024/03/24 02:01:19;;;;;;;21.75;9.02;;;4.60;99.90;;;;;;5010660;28;20123;-73
2024/03/24 02:03:44;;;;;;;24.15;9.13;;;4.60;99.90;;;;;;5010702;28;20038;-74
2024/03/24 02:06:10;;;;;;;24.20;9.38;;;4.60;99.90;;;;;;5012262;28;20035;-73
2024/03/24 02:08:35;;;;;;;26.60;9.75;;;4.60;99.90;;;;;;5010905;28;20036;-74
2024/03/24 02:11:01;;;;;;;23.55;10.45;;;4.60;99.90;;;;;;5012175;28;20050;-74
2024/03/24 02:13:27;;;;;;;23.13;11.15;;;4.70;99.90;;;;;;5012277;28;20018;-75
2024/03/24 02:15:53;;;;;;;25.23;10.20;;;4.60;99.90;;;;;;5010800;28;20038;-74
2024/03/24 02:18:19;;;;;;;21.73;11.05;;;4.60;99.90;;;;;;5012270;28;20017;-74
2024/03/24 02:20:45;;;;;;;25.80;10.68;;;4.60;99.90;;;;;;5010213;28;20111;-74
2024/03/24 02:23:11;;;;;;;23.05;11.23;;;4.60;99.90;;;;;;5012038;28;20479;-74
2024/03/24 02:25:36;;;;;;;21.45;8.88;;;4.60;99.90;;;;;;5012130;28;20471;-74
2024/03/24 02:28:02;;;;;;;23.45;9.98;;;4.60;99.90;;;;;;5011917;28;20030;-73
2024/03/24 02:30:28;;;;;;;24.90;10.77;;;4.60;99.90;;;;;;5011951;28;20030;-73
2024/03/24 02:32:54;;;;;;;29.30;12.02;;;4.60;99.90;;;;;;5010792;28;20036;-74
2024/03/24 02:35:19;;;;;;;28.15;12.10;;;4.70;99.90;;;;;;5010155;28;20026;-74
2024/03/24 02:37:45;;;;;;;30.73;12.98;;;4.60;99.90;;;;;;5012305;28;20026;-74
2024/03/24 02:40:13;;;;;;;34.22;13.52;;;4.70;99.90;;;;;;5012816;28;20042;-74
2024/03/24 02:42:39;;;;;;;32.33;12.40;;;4.70;99.90;;;;;;5011782;28;20050;-74
2024/03/24 02:45:06;;;;;;;30.67;13.35;;;4.70;99.90;;;;;;5012234;28;20441;-74
2024/03/24 02:47:32;;;;;;;28.88;13.27;;;4.70;99.90;;;;;;5011761;28;20057;-74
2024/03/24 02:49:58;;;;;;;29.02;12.25;;;4.70;99.90;;;;;;5011697;28;20390;-73
2024/03/24 02:52:24;;;;;;;29.90;12.20;;;4.80;99.90;;;;;;5012047;28;20117;-74
2024/03/24 02:54:49;;;;;;;21.45;7.55;;;4.80;99.90;;;;;;5011579;28;20058;-78
2024/03/24 02:57:15;;;;;;;22.63;9.48;;;4.80;99.90;;;;;;5012154;28;20180;-76
2024/03/24 02:59:41;;;;;;;23.92;10.93;;;4.90;99.90;;;;;;5011297;28;20031;-73
2024/03/24 03:02:07;;;;;;;28.48;10.77;;;4.80;99.90;;;;;;5010209;28;20053;-73
2024/03/24 03:04:32;;;;;;;23.52;10.40;;;4.70;99.90;;;;;;5009990;28;20069;-73
2024/03/24 03:10:20;;;;;;;28.08;11.18;;;4.70;99.90;;;;;;5010685;28;20038;-72
2024/03/24 03:12:46;;;;;;;21.15;9.02;;;4.70;99.90;;;;;;5010218;28;20678;-72
2024/03/24 03:15:15;;;;;;;21.13;9.50;;;4.70;99.90;;;;;;5012085;28;20030;-73
2024/03/24 03:17:41;;;;;;;20.38;9.02;;;4.70;99.90;;;;;;5010394;28;20073;-74
2024/03/24 03:20:08;;;;;;;27.45;12.27;;;4.70;99.90;;;;;;5011395;28;20069;-73
2024/03/24 03:22:34;;;;;;;24.23;11.05;;;4.70;99.90;;;;;;5011574;28;20029;-71
2024/03/24 03:24:59;;;;;;;25.17;11.80;;;4.70;99.90;;;;;;5011199;28;20030;-70
2024/03/24 03:27:25;;;;;;;24.75;11.68;;;4.70;99.90;;;;;;5011304;28;20097;-70
2024/03/24 03:29:50;;;;;;;27.90;11.88;;;4.70;99.90;;;;;;5011645;28;20069;-71
2024/03/24 03:32:16;;;;;;;23.05;11.50;;;4.70;99.90;;;;;;5011878;28;20056;-71
2024/03/24 03:34:41;;;;;;;28.13;11.60;;;4.80;99.90;;;;;;5014964;28;20031;-73
2024/03/24 03:37:08;;;;;;;18.63;9.93;;;4.80;99.90;;;;;;5013787;28;20040;-70
2024/03/24 03:39:34;;;;;;;27.40;13.40;;;4.80;99.90;;;;;;5015414;28;20156;-71
2024/03/24 03:42:00;;;;;;;28.35;12.80;;;4.80;99.90;;;;;;5014117;28;20065;-72
2024/03/24 03:44:25;;;;;;;26.02;12.27;;;4.80;99.90;;;;;;5015053;28;20391;-70
2024/03/24 03:46:51;;;;;;;23.42;11.90;;;4.80;99.90;;;;;;5012806;28;20038;-73
2024/03/24 03:49:16;;;;;;;35.90;14.55;;;4.80;99.90;;;;;;5013677;28;20022;-73
2024/03/24 03:51:44;;;;;;;25.83;11.40;;;4.80;99.90;;;;;;5014915;28;20053;-72
2024/03/24 03:54:11;;;;;;;30.02;13.23;;;4.80;99.90;;;;;;5014561;28;20036;-71
2024/03/24 03:56:37;;;;;;;19.38;9.57;;;4.80;99.90;;;;;;5014444;28;20042;-75
2024/03/24 03:59:02;;;;;;;22.65;11.32;;;4.80;99.90;;;;;;5013439;28;20092;-73
2024/03/24 04:01:28;;;;;;;27.38;12.88;;;4.80;99.90;;;;;;5013967;28;20117;-73
2024/03/24 04:03:54;;;;;;;25.67;13.63;;;4.80;99.90;;;;;;5015038;28;20084;-72
2024/03/24 04:06:19;;;;;;;23.33;10.02;;;4.80;99.90;;;;;;5014361;28;20046;-72
2024/03/24 04:08:45;;;;;;;20.92;8.80;;;4.80;99.90;;;;;;5012572;28;20030;-71
2024/03/24 04:11:11;;;;;;;21.10;11.77;;;4.70;99.90;;;;;;5014809;28;20371;-73
2024/03/24 04:13:36;;;;;;;19.80;10.20;;;4.80;99.90;;;;;;5012610;28;20018;-72
2024/03/24 04:16:05;;;;;;;24.13;10.98;;;4.80;99.90;;;;;;5014673;28;20044;-73
2024/03/24 04:18:34;;;;;;;21.05;10.02;;;4.70;99.90;;;;;;5013994;28;20133;-73
2024/03/24 04:21:03;;;;;;;22.42;11.02;;;4.70;99.90;;;;;;5013640;28;20042;-73
2024/03/24 04:23:29;;;;;;;25.77;11.65;;;4.70;99.90;;;;;;5013643;28;20034;-74
2024/03/24 04:25:55;;;;;;;19.35;10.77;;;4.70;99.90;;;;;;5013288;28;20082;-73
2024/03/24 04:28:20;;;;;;;18.92;10.57;;;4.70;99.90;;;;;;5013833;28;20026;-73
2024/03/24 04:30:55;;;;;;;18.35;9.18;;;4.60;99.90;;;;;;5012545;28;20030;-75
2024/03/24 04:33:21;;;;;;;23.75;11.40;;;4.60;99.90;;;;;;5015534;28;20038;-74
2024/03/24 04:35:47;;;;;;;22.20;10.70;;;4.60;99.90;;;;;;5014893;28;20042;-71
2024/03/24 04:38:13;;;;;;;18.92;9.68;;;4.60;99.90;;;;;;5015032;28;20029;-72
2024/03/24 04:40:39;;;;;;;22.35;10.77;;;4.60;99.90;;;;;;5014817;28;20094;-73
2024/03/24 04:43:07;;;;;;;20.20;11.25;;;4.50;99.90;;;;;;5012390;28;20037;-75
2024/03/24 04:45:33;;;;;;;21.38;9.52;;;4.50;99.90;;;;;;5014469;28;20023;-73
2024/03/24 04:47:59;;;;;;;19.27;9.25;;;4.50;99.90;;;;;;5012523;28;20041;-72
2024/03/24 04:50:25;;;;;;;15.25;8.98;;;4.50;99.90;;;;;;5012451;28;20030;-73
2024/03/24 04:52:51;;;;;;;18.52;10.02;;;4.50;99.90;;;;;;5012422;28;20029;-73
2024/03/24 04:55:16;;;;;;;9.07;5.13;;;4.50;99.90;;;;;;5014279;28;20057;-74
2024/03/24 04:57:42;;;;;;;11.98;6.95;;;4.50;99.90;;;;;;5013651;28;20066;-74
2024/03/24 05:00:08;;;;;;;13.05;7.65;;;4.40;99.90;;;;;;5011927;28;20029;-75
2024/03/24 05:02:37;;;;;;;13.15;8.63;;;4.40;99.90;;;;;;5011562;28;20046;-73
2024/03/24 05:05:02;;;;;;;13.00;7.85;;;4.40;99.90;;;;;;5012657;28;20053;-74
2024/03/24 05:07:29;;;;;;;14.57;8.70;;;4.40;99.90;;;;;;5011628;28;20045;-73
2024/03/24 05:09:55;;;;;;;16.05;9.82;;;4.40;99.90;;;;;;5012146;28;20030;-73
2024/03/24 05:12:21;;;;;;;15.93;9.75;;;4.40;99.90;;;;;;5010643;28;20052;-74
2024/03/24 05:14:48;;;;;;;18.02;9.93;;;4.40;99.90;;;;;;5013398;28;20034;-74
2024/03/24 05:17:14;;;;;;;16.13;9.73;;;4.40;99.90;;;;;;5013277;28;20057;-74
2024/03/24 05:19:40;;;;;;;18.98;11.40;;;4.40;99.90;;;;;;5013039;28;20125;-74
2024/03/24 05:22:06;;;;;;;20.92;11.18;;;4.40;99.90;;;;;;5012666;28;20467;-73
2024/03/24 05:24:31;;;;;;;21.83;11.70;;;4.30;99.90;;;;;;5011379;28;20030;-74
2024/03/24 05:26:57;;;;;;;20.83;11.95;;;4.30;99.90;;;;;;5011734;28;20037;-74
2024/03/24 05:29:23;;;;;;;18.77;10.23;;;4.30;99.90;;;;;;5013122;28;20057;-73
2024/03/24 05:31:56;;;;;;;19.88;10.55;;;4.30;99.90;;;;;;5012436;28;20059;-74
2024/03/24 05:34:22;;;;;;;21.02;12.77;;;4.30;99.90;;;;;;5011276;28;20045;-74
2024/03/24 05:36:48;;;;;;;18.00;11.27;;;4.30;99.90;;;;;;5012638;28;20032;-74
2024/03/24 05:39:14;;;;;;;20.42;10.95;;;4.30;99.90;;;;;;5012656;28;20053;-73
2024/03/24 05:41:40;;;;;;;21.90;12.13;;;4.30;99.90;;;;;;5011250;28;20034;-73
2024/03/24 05:44:05;;;;;;;22.42;12.43;;;4.20;99.90;;;;;;5011620;28;20034;-73
2024/03/24 05:46:31;;;;;;;21.92;12.60;;;4.30;99.90;;;;;;5012468;28;20034;-75
2024/03/24 05:48:56;;;;;;;20.33;12.18;;;4.30;99.90;;;;;;5012323;28;20081;-73
2024/03/24 05:51:22;;;;;;;21.65;12.80;;;4.30;99.90;;;;;;5011054;28;20056;-74
2024/03/24 05:53:48;;;;;;;21.00;12.15;;;4.30;99.90;;;;;;5012286;28;20450;-74
2024/03/24 05:56:14;;;;;;;21.60;12.07;;;4.30;99.90;;;;;;5011707;28;20023;-74
2024/03/24 05:58:39;;;;;;;22.23;12.02;;;4.40;99.90;;;;;;5012764;28;20022;-75
2024/03/24 06:01:05;;;;;;;22.73;13.55;;;4.30;99.90;;;;;;5010913;28;20136;-74
2024/03/24 06:03:30;;;;;;;23.17;13.45;;;4.30;99.90;;;;;;5010726;28;20216;-75
2024/03/24 06:05:57;;;;;;;23.30;13.50;;;4.30;99.90;;;;;;5012933;28;20034;-75
2024/03/24 06:08:23;;;;;;;24.55;14.50;;;4.40;99.90;;;;;;5010464;28;20092;-74
2024/03/24 06:10:49;;;;;;;26.70;14.02;;;4.40;99.90;;;;;;5012649;28;20036;-73
2024/03/24 06:13:15;;;;;;;23.95;14.50;;;4.50;99.90;;;;;;5012441;28;20065;-75
2024/03/24 06:15:41;;;;;;;24.50;13.00;;;4.60;99.90;;;;;;5011806;28;20085;-74
2024/03/24 06:18:07;;;;;;;24.92;14.32;;;4.70;99.90;;;;;;5011746;28;20034;-75
2024/03/24 06:20:34;;;;;;;25.88;13.65;;;4.70;99.90;;;;;;5013042;28;20049;-74
2024/03/24 06:23:04;;;;;;;23.17;14.05;;;4.70;99.90;;;;;;5012892;28;20030;-75
2024/03/24 06:25:30;;;;;;;23.67;14.02;;;4.80;99.90;;;;;;5012494;28;20038;-74
2024/03/24 06:27:56;;;;;;;27.25;15.23;;;4.80;99.90;;;;;;5011838;28;20445;-73
2024/03/24 06:30:22;;;;;;;24.92;14.77;;;4.90;99.90;;;;;;5013033;28;20036;-77
2024/03/24 06:32:48;;;;;;;24.15;14.00;;;4.90;99.90;;;;;;5012466;28;20026;-76
2024/03/24 06:35:14;;;;;;;27.27;14.05;;;5.00;99.90;;;;;;5012423;28;20029;-76
2024/03/24 06:37:39;;;;;;;20.05;11.75;;;5.00;99.90;;;;;;5012709;28;20022;-76
2024/03/24 06:40:08;;;;;;;20.67;11.00;;;5.00;99.90;;;;;;5034052;28;20034;-76
2024/03/24 06:42:59;;;;;;;26.13;12.23;;;5.10;99.90;;;;;;5021968;28;20057;-75
2024/03/24 06:45:28;;;;;;;19.60;11.63;;;5.10;99.90;;;;;;5011754;28;20022;-75
2024/03/24 06:47:54;;;;;;;18.38;11.00;;;5.20;99.90;;;;;;5010844;28;20031;-75
2024/03/24 06:50:19;;;;;;;21.63;11.32;;;5.20;99.90;;;;;;5011724;28;20018;-72
2024/03/24 06:52:45;;;;;;;16.90;10.00;;;5.20;99.90;;;;;;5009278;28;20026;-74
2024/03/24 06:55:11;;;;;;;20.50;11.27;;;5.20;99.90;;;;;;5010299;28;20022;-75
2024/03/24 06:57:36;;;;;;;19.45;11.25;;;5.10;99.90;;;;;;5010163;28;20023;-76
2024/03/24 07:00:02;;;;;;;20.85;11.13;;;5.10;99.90;;;;;;5010353;28;20038;-75
2024/03/24 07:02:27;;;;;;;20.00;11.40;;;5.10;99.90;;;;;;5009556;28;20045;-75
2024/03/24 07:04:53;;;;;;;22.35;10.82;;;5.20;99.90;;;;;;5009894;28;20085;-74
2024/03/24 07:07:18;;;;;;;19.05;11.30;;;5.20;99.90;;;;;;5012128;28;20030;-74
2024/03/24 07:09:44;;;;;;;16.27;8.05;;;5.20;99.90;;;;;;5014709;28;20035;-72
2024/03/24 07:12:10;;;;;;;19.52;10.85;;;5.20;99.90;;;;;;5015570;28;20041;-74
2024/03/24 07:14:35;;;;;;;49.33;10.73;;;5.20;99.90;;;;;;5012870;28;20422;-75
2024/03/24 07:17:01;;;;;;;17.73;10.13;;;5.30;99.90;;;;;;5014174;28;20037;-74
2024/03/24 07:19:26;;;;;;;18.70;9.85;;;5.20;99.90;;;;;;5015769;28;20030;-73
2024/03/24 07:21:52;;;;;;;19.40;10.27;;;5.30;99.90;;;;;;5012879;28;20046;-74
2024/03/24 07:24:17;;;;;;;19.08;9.20;;;5.40;99.90;;;;;;5014704;28;20022;-75
2024/03/24 07:26:43;;;;;;;19.27;10.20;;;5.40;99.90;;;;;;5015657;28;20113;-75
2024/03/24 07:29:09;;;;;;;18.13;9.77;;;5.50;99.90;;;;;;5014036;28;20574;-75
2024/03/24 07:31:34;;;;;;;16.83;9.40;;;5.60;99.90;;;;;;5014561;28;20034;-74
2024/03/24 07:34:00;;;;;;;19.95;8.73;;;5.60;99.90;;;;;;5013764;28;20022;-73
2024/03/24 07:36:26;;;;;;;14.02;7.72;;;5.60;99.90;;;;;;5013222;28;20025;-76
2024/03/24 07:38:52;;;;;;;22.70;7.82;;;5.60;99.90;;;;;;5012172;28;20482;-75
2024/03/24 07:41:17;;;;;;;14.50;7.85;;;5.60;99.90;;;;;;5015495;28;20038;-73
2024/03/24 07:43:44;;;;;;;14.43;8.07;;;5.70;99.90;;;;;;5014783;28;20038;-74
2024/03/24 07:46:10;;;;;;;20.35;8.15;;;5.70;99.90;;;;;;5015179;28;20045;-74
2024/03/24 07:48:35;;;;;;;17.23;8.13;;;5.80;99.90;;;;;;5016439;28;20019;-76
2024/03/24 07:51:01;;;;;;;12.60;6.85;;;5.80;99.90;;;;;;5016367;28;20065;-75
2024/03/24 07:53:26;;;;;;;14.30;7.35;;;5.90;99.90;;;;;;5014018;28;20038;-77
2024/03/24 07:55:52;;;;;;;13.95;6.32;;;5.90;99.90;;;;;;5015069;28;20084;-72
2024/03/24 07:58:17;;;;;;;14.82;6.88;;;6.00;99.90;;;;;;5013500;28;20101;-77
2024/03/24 08:00:43;;;;;;;12.70;6.30;;;6.00;99.90;;;;;;5012924;28;20129;-76
2024/03/24 08:03:09;;;;;;;15.35;6.85;;;6.00;99.90;;;;;;5013724;28;20529;-75
2024/03/24 08:05:35;;;;;;;11.50;6.10;;;6.10;99.90;;;;;;5014061;28;20025;-75
2024/03/24 08:08:00;;;;;;;12.73;5.75;;;6.10;99.90;;;;;;5013314;28;20479;-76
2024/03/24 08:10:26;;;;;;;12.23;5.00;;;6.20;99.90;;;;;;5013178;28;20104;-74
2024/03/24 08:12:51;;;;;;;8.90;4.35;;;6.10;99.90;;;;;;5015029;28;20027;-75
2024/03/24 08:15:17;;;;;;;9.57;3.63;;;5.90;99.90;;;;;;5014308;28;21107;-77
2024/03/24 08:17:44;;;;;;;9.13;3.38;;;6.00;99.90;;;;;;5013044;28;20470;-77
2024/03/24 08:20:13;;;;;;;12.07;5.80;;;6.00;99.90;;;;;;5014890;28;20026;-74
2024/03/24 08:22:55;;;;;;;;;;;;;;;;;;;;;
2024/03/24 08:25:22;;;;;;;8.43;3.50;;;6.00;99.90;;;;;;5017255;28;20113;-73
2024/03/24 08:27:47;;;;;;;13.05;3.60;;;6.00;99.90;;;;;;5016273;28;20030;-73
2024/03/24 08:30:13;;;;;;;7.68;3.40;;;6.10;99.90;;;;;;5013904;28;20117;-74
2024/03/24 08:32:38;;;;;;;12.23;3.42;;;6.10;99.90;;;;;;5013768;28;20034;-75
2024/03/24 08:35:04;;;;;;;11.20;3.53;;;6.00;99.90;;;;;;5012572;28;20089;-74
2024/03/24 08:37:31;;;;;;;6.90;3.05;;;6.00;99.90;;;;;;5013782;28;20062;-74
2024/03/24 08:39:56;;;;;;;11.40;2.90;;;6.00;99.90;;;;;;5013613;28;20014;-73
2024/03/24 08:42:22;;;;;;;7.38;2.50;;;5.90;99.90;;;;;;5012514;28;20052;-73
2024/03/24 08:44:47;;;;;;;7.15;2.33;;;5.80;99.90;;;;;;5012944;28;20467;-72
2024/03/24 08:47:13;;;;;;;5.90;2.47;;;5.80;99.90;;;;;;5012582;28;20035;-74
2024/03/24 08:49:39;;;;;;;12.05;2.40;;;5.80;99.90;;;;;;5011994;28;20033;-73
2024/03/24 08:52:05;;;;;;;3.65;1.90;;;5.80;99.90;;;;;;5012391;28;20082;-74
2024/03/24 08:54:30;;;;;;;3.80;1.77;;;5.90;99.90;;;;;;5013984;28;20026;-73
2024/03/24 08:56:56;;;;;;;2.90;2.00;;;6.00;99.90;;;;;;5011733;28;20019;-74
2024/03/24 08:59:21;;;;;;;5.03;2.35;;;6.10;99.90;;;;;;5012008;28;20476;-74
2024/03/24 09:01:48;;;;;;;3.40;1.88;;;6.20;99.90;;;;;;5013688;28;20042;-75
2024/03/24 09:04:14;;;;;;;5.72;2.50;;;6.20;99.90;;;;;;5011481;28;20027;-74
2024/03/24 09:06:39;;;;;;;4.38;2.20;;;6.20;99.90;;;;;;5011964;28;20053;-76
2024/03/24 09:09:05;;;;;;;7.13;2.60;;;6.20;99.90;;;;;;5013124;28;20038;-74
2024/03/24 09:11:30;;;;;;;5.07;1.77;;;6.20;99.90;;;;;;5013800;28;20057;-73
2024/03/24 09:13:56;;;;;;;6.70;1.92;;;6.30;99.90;;;;;;5011143;28;20030;-76
2024/03/24 09:16:23;;;;;;;7.28;2.28;;;6.20;99.90;;;;;;5010954;28;20459;-77
2024/03/24 09:18:49;;;;;;;8.48;2.95;;;6.30;99.90;;;;;;5012724;28;20026;-74
2024/03/24 09:21:16;;;;;;;6.93;2.40;;;6.30;99.90;;;;;;5010276;28;20038;-75
2024/03/24 09:23:41;;;;;;;7.85;2.70;;;6.40;99.90;;;;;;5011417;28;20030;-74
2024/03/24 09:26:07;;;;;;;9.15;2.50;;;6.40;99.90;;;;;;5011770;28;20419;-74
2024/03/24 09:28:37;;;;;;;5.75;2.10;;;6.50;99.90;;;;;;5013026;28;20088;-79
2024/03/24 09:31:03;;;;;;;7.32;3.10;;;6.50;99.90;;;;;;5011989;28;20033;-74
2024/03/24 09:33:29;;;;;;;14.07;3.88;;;6.50;99.90;;;;;;5012338;28;20030;-73
2024/03/24 09:36:01;;;;;;;12.88;3.30;;;6.60;99.90;;;;;;5013175;28;20034;-73
2024/03/24 09:38:27;;;;;;;6.32;3.80;;;6.80;99.90;;;;;;5010714;28;20399;-72
2024/03/24 09:40:54;;;;;;;10.02;3.10;;;6.90;99.90;;;;;;5010621;28;20046;-72
2024/03/24 09:43:20;;;;;;;12.15;6.10;;;6.90;99.90;;;;;;5011638;28;20036;-74
2024/03/24 09:45:46;;;;;;;7.65;3.50;;;6.90;99.90;;;;;;5011418;28;20034;-74
2024/03/24 09:48:13;;;;;;;9.75;3.30;;;6.90;99.90;;;;;;5011921;28;20040;-73
2024/03/24 09:50:39;;;;;;;11.60;3.60;;;7.00;99.90;;;;;;5012385;28;20030;-74
2024/03/24 09:53:05;;;;;;;14.40;3.28;;;7.00;99.90;;;;;;5012362;28;20060;-73
2024/03/24 09:55:31;;;;;;;11.18;3.22;;;7.10;99.90;;;;;;5012798;28;20081;-73
2024/03/24 09:57:58;;;;;;;12.77;3.85;;;7.20;99.90;;;;;;5010501;28;20049;-74
2024/03/24 10:00:24;;;;;;;12.38;3.70;;;7.20;99.90;;;;;;5017893;28;20070;-73
2024/03/24 10:02:50;;;;;;;8.77;3.38;;;7.30;99.90;;;;;;5010092;28;20044;-73
2024/03/24 10:05:16;;;;;;;13.35;3.58;;;7.40;99.90;;;;;;5010923;28;20054;-75
2024/03/24 10:07:43;;;;;;;11.77;3.30;;;7.70;99.90;;;;;;5010506;28;20475;-73
2024/03/24 10:10:09;;;;;;;8.95;3.58;;;7.90;99.90;;;;;;5011503;28;20038;-73
2024/03/24 10:12:35;;;;;;;9.98;3.38;;;8.10;99.90;;;;;;5012193;28;20034;-73
2024/03/24 10:15:17;;;;;;;10.25;3.00;;;8.20;99.90;;;;;;5012083;28;20048;-76
2024/03/24 10:17:43;;;;;;;5.45;2.47;;;8.40;99.90;;;;;;5012082;28;20113;-74
2024/03/24 10:20:16;;;;;;;8.90;2.77;;;8.50;99.90;;;;;;5010286;28;20041;-73
2024/03/24 10:22:53;;;;;;;9.90;3.08;;;8.50;99.90;;;;;;5012161;28;20069;-75
2024/03/24 10:25:23;;;;;;;6.10;2.50;;;8.40;99.90;;;;;;5012308;28;20022;-73
2024/03/24 10:27:49;;;;;;;8.32;2.30;;;8.40;99.90;;;;;;5011878;28;20027;-72
2024/03/24 10:30:15;;;;;;;4.38;1.48;;;8.20;99.90;;;;;;5011814;28;20053;-74
2024/03/24 10:32:41;;;;;;;7.93;1.80;;;8.00;99.90;;;;;;5011820;28;20031;-74
2024/03/24 10:35:07;;;;;;;8.82;1.55;;;7.80;99.90;;;;;;5010573;28;20026;-73
2024/03/24 10:37:33;;;;;;;4.30;0.77;;;7.70;99.90;;;;;;5012012;28;20029;-73
2024/03/24 10:39:58;;;;;;;4.00;0.77;;;7.50;99.90;;;;;;5009484;28;20034;-75
2024/03/24 10:42:27;;;;;;;2.60;1.00;;;7.50;99.90;;;;;;5014359;28;20048;-71
2024/03/24 10:44:54;;;;;;;4.43;1.02;;;7.50;99.90;;;;;;5016093;28;20041;-75
2024/03/24 10:47:20;;;;;;;3.45;0.95;;;7.50;99.90;;;;;;5014053;28;20030;-75
2024/03/24 10:49:47;;;;;;;4.18;1.25;;;7.50;99.90;;;;;;5013998;28;20056;-76
2024/03/24 10:52:15;;;;;;;3.78;1.08;;;7.60;99.90;;;;;;5017279;28;20355;-73
2024/03/24 10:54:43;;;;;;;1.58;0.80;;;7.60;99.90;;;;;;5015346;28;20026;-73
2024/03/24 10:57:10;;;;;;;3.58;1.30;;;7.60;99.90;;;;;;5015150;28;20098;-72
2024/03/24 10:59:35;;;;;;;3.60;1.45;;;7.70;99.90;;;;;;5015231;28;20034;-71
2024/03/24 11:02:01;;;;;;;2.42;1.23;;;7.80;99.90;;;;;;5015142;28;20754;-73
2024/03/24 11:04:28;;;;;;;2.50;1.00;;;7.70;99.90;;;;;;5016126;28;20034;-75
2024/03/24 11:06:55;;;;;;;2.88;1.00;;;7.60;99.90;;;;;;5015887;28;20034;-76
2024/03/24 11:09:20;;;;;;;2.53;0.80;;;7.40;99.90;;;;;;5010823;28;20034;-74
2024/03/24 11:11:46;;;;;;;2.72;0.88;;;7.20;99.90;;;;;;5011922;28;20152;-77
2024/03/24 11:14:13;;;;;;;7.20;1.50;;;7.10;99.90;;;;;;5013985;28;20037;-73
2024/03/24 11:16:40;;;;;;;2.85;1.20;;;7.00;99.90;;;;;;5013508;28;20054;-75
2024/03/24 11:19:08;;;;;;;2.55;1.38;;;6.90;99.90;;;;;;5029277;28;20092;-73
2024/03/24 11:21:42;;;;;;;5.15;1.42;;;6.80;99.90;;;;;;5014077;28;20038;-73
2024/03/24 11:24:30;;;;;;;1.15;0.90;;;6.80;99.90;;;;;;5013638;28;20422;-71
2024/03/24 11:26:58;;;;;;;2.28;1.00;;;6.80;99.90;;;;;;5012857;28;20064;-75
2024/03/24 11:29:45;;;;;;;6.50;1.42;;;6.80;99.90;;;;;;5014133;28;20995;-74
2024/03/24 11:32:20;;;;;;;6.45;2.70;;;6.90;99.90;;;;;;5015088;28;20031;-72
2024/03/24 11:34:54;;;;;;;11.32;3.70;;;7.00;99.90;;;;;;5013644;28;20102;-73
2024/03/24 11:37:23;;;;;;;3.60;1.75;;;7.10;99.90;;;;;;5020852;28;20036;-73
2024/03/24 11:39:49;;;;;;;10.20;3.47;;;7.30;99.90;;;;;;5013560;28;20035;-74
2024/03/24 11:42:19;;;;;;;9.85;2.45;;;7.40;99.90;;;;;;5014788;28;20045;-72
2024/03/24 11:44:46;;;;;;;4.88;1.50;;;7.50;99.90;;;;;;5016638;28;20018;-73
2024/03/24 11:47:12;;;;;;;5.43;1.55;;;7.50;99.90;;;;;;5013888;28;20045;-74
2024/03/24 11:49:38;;;;;;;3.50;1.00;;;7.50;99.90;;;;;;5013925;28;20026;-76
2024/03/24 11:52:05;;;;;;;2.72;0.88;;;7.50;99.90;;;;;;5012503;28;20053;-73
2024/03/24 11:54:32;;;;;;;4.05;1.20;;;7.40;99.90;;;;;;5013095;28;20022;-76
2024/03/24 11:56:57;;;;;;;2.95;0.80;;;7.40;99.90;;;;;;5019124;28;20252;-73
2024/03/24 11:59:23;;;;;;;4.50;1.33;;;7.30;99.90;;;;;;5030126;28;20038;-72
2024/03/24 12:01:49;;;;;;;3.90;1.25;;;7.30;99.90;;;;;;5012060;28;20072;-74
2024/03/24 12:04:18;;;;;;;4.30;1.55;;;7.20;99.90;;;;;;5014470;28;20034;-72
2024/03/24 12:06:47;;;;;;;2.92;1.20;;;7.20;99.90;;;;;;5012766;28;20025;-74
2024/03/24 12:09:13;;;;;;;6.18;0.90;;;7.30;99.90;;;;;;5016138;28;20037;-76
2024/03/24 12:11:40;;;;;;;2.80;1.27;;;6.90;99.90;;;;;;5012771;28;20062;-74
2024/03/24 12:14:07;;;;;;;4.50;1.60;;;6.80;99.90;;;;;;5012581;28;20033;-72
2024/03/24 12:16:33;;;;;;;3.15;1.02;;;6.70;99.90;;;;;;5011565;28;20356;-73
2024/03/24 12:18:59;;;;;;;3.83;1.23;;;6.50;99.90;;;;;;5011817;28;20042;-70
2024/03/24 12:21:24;;;;;;;3.28;0.90;;;6.40;99.90;;;;;;5013352;28;20038;-75
2024/03/24 12:23:50;;;;;;;8.10;1.98;;;6.40;99.90;;;;;;5012715;28;20033;-71
2024/03/24 12:26:19;;;;;;;6.57;2.40;;;6.40;99.90;;;;;;5013536;28;20033;-74
2024/03/24 12:28:53;;;;;;;5.95;1.35;;;6.40;99.90;;;;;;5012945;28;20037;-73
2024/03/24 12:31:19;;;;;;;3.47;1.60;;;6.50;99.90;;;;;;5013792;28;20034;-71
2024/03/24 12:33:48;;;;;;;4.57;1.38;;;6.50;99.90;;;;;;5011351;28;20031;-71
2024/03/24 12:36:15;;;;;;;9.27;1.60;;;6.40;99.90;;;;;;5012430;28;20053;-74
2024/03/24 12:38:43;;;;;;;5.05;2.45;;;6.40;99.90;;;;;;5010674;28;20348;-71
2024/03/24 12:41:22;;;;;;;5.75;1.92;;;6.30;99.90;;;;;;5011775;28;20030;-73
2024/03/24 12:43:52;;;;;;;6.72;2.15;;;6.20;99.90;;;;;;5011200;28;20038;-73
2024/03/24 12:46:25;;;;;;;7.40;2.40;;;6.20;99.90;;;;;;5012465;28;20109;-72
2024/03/24 12:48:51;;;;;;;5.57;2.20;;;6.10;99.90;;;;;;5011258;28;20091;-73